John P. Tully — CG2958 — position and weather

sailwx.info

Track history (hours):
 
Tides and Currents Weather Stations Pressure Air Temp Water Temp Dewpoint Dewpoint Depression Visibility Wind Speed Wind Dir Waves Ship Positions

Oceanographic research ship John P. Tully (Canada)

Detailed information on ship capabilities available from University of Delaware's Ocean Information Center.

Last reported at 2017-Oct-21 21:56 UTC. Time now 2017-Oct-22 15:25 UTC.
Position N 52°27' W 128°27'.

Length 68.9 m; beam 14.5 m; draft 4.5 m.

MMSI: 316114000.

Date/timePositionNaut miles runAvg speedWind from/ knotsBaromVisibWave heightAir tempDewpointWater temp
2017-Oct-21 21:56N 52°27' W 128°27'4 9.9
2017-Oct-21 21:30N 52°23' W 128°31'510.0
2017-Oct-21 21:00N 52°18' W 128°29'510.7
2017-Oct-21 20:30N 52°15' W 128°22'610.8
2017-Oct-21 19:59N 52°14' W 128°13'5 9.5
2017-Oct-21 19:30N 52°12' W 128°06'4 8.0
2017-Oct-21 19:00N 52°08' W 128°08'4 8.5
2017-Oct-21 18:31N 52°04' W 128°03'510.3
2017-Oct-21 18:00N 52°04' W 127°55'5 9.5
2017-Oct-21 17:30N 51°59' W 127°56'5 9.5
2017-Oct-21 17:00N 51°54' W 127°56'510.3
2017-Oct-21 16:30N 51°49' W 127°56'510.6
2017-Oct-21 16:00N 51°44' W 127°56'611.1
2017-Oct-21 15:30N 51°38' W 127°54'611.1
2017-Oct-21 14:58N 51°32' W 127°52'511.1
2017-Oct-21 14:29N 51°27' W 127°51'1010.1
2017-Oct-21 13:29N 51°17' W 127°53'510.5
2017-Oct-21 12:59N 51°12' W 127°52'511.0
2017-Oct-21 12:30N 51°07' W 127°50'510.6
2017-Oct-21 12:00N 51°02' W 127°47'510.0
2017-Oct-21 11:30N 50°57' W 127°43'510.0
2017-Oct-21 11:00N 50°54' W 127°37'5 9.8
2017-Oct-21 10:30N 50°51' W 127°31'510.2
2017-Oct-21 10:00N 50°49' W 127°23'510.2
2017-Oct-21 09:29N 50°47' W 127°16'610.6
2017-Oct-21 08:56N 50°45' W 127°07'5510.2
2017-Oct-21 03:31N 50°23' W 125°47'014.4
2017-Oct-21 03:30N 50°23' W 125°47'612.5
2017-Oct-21 02:59N 50°22' W 125°37'612.3
2017-Oct-21 02:30N 50°20' W 125°28'5 9.5
2017-Oct-21 02:00N 50°16' W 125°24'510.8
2017-Oct-21 01:30N 50°11' W 125°22'4 8.7
2017-Oct-21 01:01N 50°07' W 125°19'4 8.2
2017-Oct-21 00:31N 50°04' W 125°15'4 7.6
2017-Oct-21 00:01N 50°01' W 125°12'4 7.6
2017-Oct-20 23:30N 49°58' W 125°09'5 9.2
2017-Oct-20 23:01N 49°54' W 125°04'5 9.0
2017-Oct-20 22:30N 49°51' W 124°59'4 9.0
2017-Oct-20 22:00N 49°48' W 124°54'5 9.0
2017-Oct-20 21:30N 49°45' W 124°49'5 9.1
2017-Oct-20 21:01N 49°42' W 124°44'5 9.5
2017-Oct-20 20:30N 49°38' W 124°39'4 9.0
2017-Oct-20 20:00N 49°35' W 124°34'5 9.3
2017-Oct-20 19:30N 49°32' W 124°29'510.0
2017-Oct-20 19:00N 49°28' W 124°23'510.3
2017-Oct-20 18:30N 49°25' W 124°18'510.0
2017-Oct-20 18:01N 49°21' W 124°12'5 9.6
2017-Oct-20 17:31N 49°19' W 124°06'5 9.3
2017-Oct-20 17:01N 49°16' W 123°60'3 6.1
2017-Oct-20 16:30N 49°16' W 123°55'0 0.0
2017-Oct-20 16:00N 49°16' W 123°55'0 0.0
2017-Oct-20 15:30N 49°16' W 123°55'0 0.2
2017-Oct-20 15:00N 49°16' W 123°55'0 0.2
2017-Oct-20 14:31N 49°16' W 123°55'3 3.4
2017-Oct-20 13:31N 49°14' W 123°50'4 8.5
2017-Oct-20 13:00N 49°13' W 123°44'5 9.5
2017-Oct-20 12:30N 49°11' W 123°38'510.6
2017-Oct-20 12:00N 49°08' W 123°31'510.9
2017-Oct-20 11:30N 49°05' W 123°24'510.6
2017-Oct-20 11:00N 49°02' W 123°17'510.6
2017-Oct-20 10:30N 48°59' W 123°11'510.2
2017-Oct-20 10:00N 48°55' W 123°05'610.3
2017-Oct-20 09:24N 48°51' W 122°58'3 7.4
2017-Oct-20 09:00N 48°48' W 122°59'510.7
2017-Oct-20 08:31N 48°45' W 123°04'510.1
2017-Oct-20 08:00N 48°43' W 123°12'6 9.3
2017-Oct-20 07:19N 48°45' W 123°21'6 9.5
2017-Oct-20 06:44N 48°42' W 123°29'2 9.2
2017-Oct-20 06:30N 48°41' W 123°30'  
2017-Oct-18 01:28N 48°39' W 123°27'0 0.8
2017-Oct-18 00:59N 48°39' W 123°28'4 4.0
2017-Oct-17 23:57N 48°43' W 123°25'4 8.5
2017-Oct-17 23:30N 48°46' W 123°22'5 9.8
2017-Oct-17 23:01N 48°50' W 123°25'1 2.4
2017-Oct-17 22:30N 48°52' W 123°24'3 5.0
2017-Oct-17 21:59N 48°53' W 123°27'1 2.3
2017-Oct-17 21:30N 48°54' W 123°29'0 0.3
2017-Oct-17 21:00N 48°54' W 123°29'1 2.1
2017-Oct-17 20:30N 48°55' W 123°29'5 9.4
2017-Oct-17 19:58N 48°57' W 123°36'1 0.2
2017-Oct-17 16:33N 48°57' W 123°37'0 0.0
2017-Oct-17 09:21N 48°57' W 123°37'0 0.0
2017-Oct-17 06:33N 48°57' W 123°37'0 0.1
2017-Oct-17 06:27N 48°57' W 123°37'0 0.0
2017-Oct-17 05:51N 48°57' W 123°37'0 0.1
2017-Oct-17 05:27N 48°57' W 123°37'0 0.0
2017-Oct-17 04:57N 48°57' W 123°37'0 0.0
2017-Oct-17 04:27N 48°57' W 123°37'0 0.0
2017-Oct-17 03:57N 48°57' W 123°37'0 0.0
2017-Oct-17 03:09N 48°57' W 123°37'0 0.0
2017-Oct-17 02:57N 48°57' W 123°37'0 0.0
2017-Oct-17 02:27N 48°57' W 123°37'0 0.0
2017-Oct-17 01:57N 48°57' W 123°37'0 0.0
2017-Oct-17 01:27N 48°57' W 123°37'0 0.0
2017-Oct-17 00:33N 48°57' W 123°37'0 0.0
2017-Oct-16 23:33N 48°57' W 123°37'0 0.1
2017-Oct-16 23:21N 48°57' W 123°37'0 0.0
2017-Oct-16 22:57N 48°57' W 123°37'0 0.0
2017-Oct-16 22:27N 48°57' W 123°37'0 0.0
2017-Oct-16 20:57N 48°57' W 123°37'0 0.0
2017-Oct-16 20:15N 48°57' W 123°37'0 0.0
2017-Oct-16 19:57N 48°57' W 123°37'0 0.0
2017-Oct-16 19:15N 48°57' W 123°37'0 0.0
2017-Oct-16 18:45N 48°57' W 123°37'0 0.1
2017-Oct-16 18:15N 48°57' W 123°37'0 0.0
2017-Oct-16 17:45N 48°57' W 123°37'0 0.0
2017-Oct-16 17:15N 48°57' W 123°37'1 4.6
2017-Oct-16 17:00N 48°57' W 123°36'5 9.4
2017-Oct-16 16:30N 48°55' W 123°29'510.1
2017-Oct-16 16:00N 48°51' W 123°23'5 9.7
2017-Oct-16 15:30N 48°49' W 123°17'2 2.9
2017-Oct-16 14:49N 48°48' W 123°15'0 0.0
2017-Oct-16 14:28N 48°48' W 123°15'0 0.0
2017-Oct-16 13:28N 48°48' W 123°15'0 0.0
2017-Oct-16 12:37N 48°48' W 123°15'0 0.0
2017-Oct-16 12:10N 48°48' W 123°15'0 0.0
2017-Oct-16 11:55N 48°48' W 123°15'0 0.0
2017-Oct-16 11:28N 48°48' W 123°15'0 0.0
2017-Oct-16 10:52N 48°48' W 123°15'0 0.0
2017-Oct-16 10:25N 48°48' W 123°15'0 0.0
2017-Oct-16 09:13N 48°48' W 123°15'0 0.0
2017-Oct-16 08:52N 48°48' W 123°15'0 0.0
2017-Oct-16 08:28N 48°48' W 123°15'0 0.0
2017-Oct-16 07:58N 48°48' W 123°15'0 0.0
2017-Oct-16 07:10N 48°48' W 123°15'0 0.0
2017-Oct-16 06:37N 48°48' W 123°15'0 0.0
2017-Oct-16 06:28N 48°48' W 123°15'0 0.0
2017-Oct-16 05:49N 48°48' W 123°15'0 0.0
2017-Oct-16 03:55N 48°48' W 123°15'0 0.0
2017-Oct-16 03:07N 48°48' W 123°15'0 0.0
2017-Oct-16 02:58N 48°48' W 123°15'0 0.0
2017-Oct-16 02:28N 48°48' W 123°15'0 0.1
2017-Oct-16 01:43N 48°48' W 123°15'0 0.0
2017-Oct-16 01:28N 48°48' W 123°15'0 0.1
2017-Oct-16 01:00N 48°48' W 123°15'4 8.1
2017-Oct-16 00:30N 48°45' W 123°10'3 6.4
2017-Oct-16 00:00N 48°42' W 123°13'4 7.9
2017-Oct-15 23:30N 48°38' W 123°14'511.0
2017-Oct-15 23:01N 48°33' W 123°12'611.1
2017-Oct-15 22:30N 48°28' W 123°10'5 9.8
2017-Oct-15 22:00N 48°24' W 123°13'611.4
2017-Oct-15 21:30N 48°22' W 123°21'611.2
2017-Oct-15 21:00N 48°17' W 123°25'510.9
2017-Oct-15 20:30N 48°17' W 123°33'4 7.1
2017-Oct-15 19:57N 48°20' W 123°37'0 0.0
2017-Oct-15 15:40N 48°20' W 123°37'0 0.0
2017-Oct-15 15:19N 48°20' W 123°37'0 0.0
2017-Oct-15 14:58N 48°20' W 123°37'0 0.0
2017-Oct-15 13:52N 48°20' W 123°37'0 0.0
2017-Oct-15 13:25N 48°20' W 123°37'0 0.0
2017-Oct-15 12:49N 48°20' W 123°37'0 0.0
2017-Oct-15 12:28N 48°20' W 123°37'0 0.0
2017-Oct-15 11:58N 48°20' W 123°37'0 0.0
2017-Oct-15 11:28N 48°20' W 123°37'0 0.0
2017-Oct-15 06:52N 48°20' W 123°37'0 0.0
2017-Oct-15 06:28N 48°20' W 123°37'0 0.0
2017-Oct-15 05:58N 48°20' W 123°37'0 0.0
2017-Oct-15 05:28N 48°20' W 123°37'0 0.0
2017-Oct-15 03:37N 48°20' W 123°37'0 0.0
2017-Oct-15 03:28N 48°20' W 123°37'0 0.1
2017-Oct-15 02:58N 48°20' W 123°37'0 0.0
2017-Oct-15 02:28N 48°20' W 123°37'0 0.0
2017-Oct-15 01:58N 48°20' W 123°37'0 0.0
2017-Oct-14 20:25N 48°20' W 123°37'0 0.0
2017-Oct-14 19:58N 48°20' W 123°37'0 0.0
2017-Oct-14 15:37N 48°20' W 123°37'0 0.0
2017-Oct-14 12:10N 48°20' W 123°37'0 0.0
2017-Oct-14 11:55N 48°20' W 123°37'0 0.0
2017-Oct-14 11:28N 48°20' W 123°37'0 0.0
2017-Oct-14 10:58N 48°20' W 123°37'0 0.0
2017-Oct-14 10:25N 48°20' W 123°37'0 0.0
2017-Oct-14 09:58N 48°20' W 123°37'0 0.0
2017-Oct-14 07:16N 48°20' W 123°37'0 0.0
2017-Oct-14 06:58N 48°20' W 123°37'0 0.0
2017-Oct-14 06:28N 48°20' W 123°37'0 0.0
2017-Oct-14 03:52N 48°20' W 123°37'0 0.0
2017-Oct-14 03:28N 48°20' W 123°37'0 0.0
2017-Oct-14 02:59N 48°20' W 123°37'0 0.0
2017-Oct-14 02:24N 48°20' W 123°37'1 0.4
2017-Oct-13 23:18N 48°18' W 123°37'310.3
2017-Oct-13 23:00N 48°17' W 123°33'5 9.3
2017-Oct-13 22:29N 48°19' W 123°27'5 9.9
2017-Oct-13 22:00N 48°23' W 123°22'611.1
2017-Oct-13 21:30N 48°24' W 123°14'1 1.7
2017-Oct-13 21:00N 48°24' W 123°13'5 9.8
2017-Oct-13 20:30N 48°22' W 123°20'4 8.4
2017-Oct-13 20:00N 48°25' W 123°24'0 0.8
2017-Oct-13 19:26N 48°25' W 123°23'0 0.0
2017-Oct-13 18:59N 48°25' W 123°23'0 0.0
2017-Oct-13 18:26N 48°25' W 123°23'0 0.0
2017-Oct-13 17:56N 48°25' W 123°23'0 0.0
2017-Oct-13 17:26N 48°25' W 123°23'0 0.0
2017-Oct-13 16:11N 48°25' W 123°23'0 0.0
2017-Oct-13 15:44N 48°25' W 123°23'0 0.0
2017-Oct-13 15:20N 48°25' W 123°23'0 0.0
2017-Oct-13 14:56N 48°25' W 123°23'0 0.0
2017-Oct-13 14:20N 48°25' W 123°23'0 0.0
2017-Oct-13 13:44N 48°25' W 123°23'0 0.0
2017-Oct-13 13:14N 48°25' W 123°23'0 0.0
2017-Oct-13 12:50N 48°25' W 123°23'0 0.0
2017-Oct-13 12:26N 48°25' W 123°23'0 0.0
2017-Oct-13 11:56N 48°25' W 123°23'0 0.0
2017-Oct-13 11:26N 48°25' W 123°23'0 0.0
2017-Oct-13 10:56N 48°25' W 123°23'0 0.0
2017-Oct-13 10:20N 48°25' W 123°23'0 0.0
2017-Oct-13 09:56N 48°25' W 123°23'0 0.0
2017-Oct-13 09:26N 48°25' W 123°23'0 0.0
2017-Oct-13 08:32N 48°25' W 123°23'0 0.0
2017-Oct-13 08:26N 48°25' W 123°23'0 0.0
2017-Oct-13 07:56N 48°25' W 123°23'0 0.0
2017-Oct-13 07:26N 48°25' W 123°23'0 0.0
2017-Oct-13 06:56N 48°25' W 123°23'0 0.0
2017-Oct-13 06:26N 48°25' W 123°23'0 0.0
2017-Oct-13 05:56N 48°25' W 123°23'0 0.0
2017-Oct-13 05:26N 48°25' W 123°23'0 0.0
2017-Oct-13 04:56N 48°25' W 123°23'0 0.0
2017-Oct-13 04:26N 48°25' W 123°23'0 0.0
2017-Oct-13 03:59N 48°25' W 123°23'0 0.0
2017-Oct-13 03:26N 48°25' W 123°23'0 0.0
2017-Oct-13 02:56N 48°25' W 123°23'0 0.0
2017-Oct-13 02:26N 48°25' W 123°23'0 0.0
2017-Oct-13 01:50N 48°25' W 123°23'0 0.0
2017-Oct-13 01:29N 48°25' W 123°23'0 0.0
2017-Oct-13 00:59N 48°25' W 123°23'0 0.0
2017-Oct-13 00:26N 48°25' W 123°23'0 0.0
2017-Oct-12 23:56N 48°25' W 123°23'0 0.0
2017-Oct-12 23:26N 48°25' W 123°23'0 0.0
2017-Oct-12 22:56N 48°25' W 123°23'0 0.0
2017-Oct-12 22:26N 48°25' W 123°23'0 0.0
2017-Oct-12 22:00N 48°25' W 123°23'1 1.9
2017-Oct-12 21:31N 48°24' W 123°24'5 9.5
2017-Oct-12 21:00N 48°23' W 123°17'3 5.9
2017-Oct-12 20:30N 48°26' W 123°17'0 0.4
2017-Oct-12 20:01N 48°26' W 123°17'3 6.7
2017-Oct-12 19:30N 48°29' W 123°15'510.1
2017-Oct-12 19:00N 48°34' W 123°18'5 9.5
2017-Oct-12 18:30N 48°38' W 123°22'1 1.0
2017-Oct-12 17:58N 48°38' W 123°21'1 1.9
2017-Oct-12 17:26N 48°39' W 123°22'0 0.5
2017-Oct-12 17:00N 48°38' W 123°22'6 5.7
2017-Oct-12 15:58N 48°42' W 123°29'3 6.2
2017-Oct-12 15:30N 48°39' W 123°28'0 0.0
2017-Oct-12 07:14N 48°39' W 123°27'0 0.0
2017-Oct-12 06:56N 48°39' W 123°27'  
Track history (hours):
 
Tides and Currents Weather Stations Pressure Air Temp Water Temp Dewpoint Dewpoint Depression Visibility Wind Speed Wind Dir Waves Ship Positions

Oceanographic research ship John P. Tully (Canada)

Detailed information on ship capabilities available from University of Delaware's Ocean Information Center.

Last reported at 2017-Oct-21 21:56 UTC. Time now 2017-Oct-22 15:25 UTC.
Position N 52°27' W 128°27'.

Length 68.9 m; beam 14.5 m; draft 4.5 m.

MMSI: 316114000.

Date/timePositionNaut miles runAvg speedWind from/ knotsBaromVisibWave heightAir tempDewpointWater temp
2017-Oct-21 21:56N 52°27' W 128°27'4 9.9
2017-Oct-21 21:30N 52°23' W 128°31'510.0
2017-Oct-21 21:00N 52°18' W 128°29'510.7
2017-Oct-21 20:30N 52°15' W 128°22'610.8
2017-Oct-21 19:59N 52°14' W 128°13'5 9.5
2017-Oct-21 19:30N 52°12' W 128°06'4 8.0
2017-Oct-21 19:00N 52°08' W 128°08'4 8.5
2017-Oct-21 18:31N 52°04' W 128°03'510.3
2017-Oct-21 18:00N 52°04' W 127°55'5 9.5
2017-Oct-21 17:30N 51°59' W 127°56'5 9.5
2017-Oct-21 17:00N 51°54' W 127°56'510.3
2017-Oct-21 16:30N 51°49' W 127°56'510.6
2017-Oct-21 16:00N 51°44' W 127°56'611.1
2017-Oct-21 15:30N 51°38' W 127°54'611.1
2017-Oct-21 14:58N 51°32' W 127°52'511.1
2017-Oct-21 14:29N 51°27' W 127°51'1010.1
2017-Oct-21 13:29N 51°17' W 127°53'510.5
2017-Oct-21 12:59N 51°12' W 127°52'511.0
2017-Oct-21 12:30N 51°07' W 127°50'510.6
2017-Oct-21 12:00N 51°02' W 127°47'510.0
2017-Oct-21 11:30N 50°57' W 127°43'510.0
2017-Oct-21 11:00N 50°54' W 127°37'5 9.8
2017-Oct-21 10:30N 50°51' W 127°31'510.2
2017-Oct-21 10:00N 50°49' W 127°23'510.2
2017-Oct-21 09:29N 50°47' W 127°16'610.6
2017-Oct-21 08:56N 50°45' W 127°07'5510.2
2017-Oct-21 03:31N 50°23' W 125°47'014.4
2017-Oct-21 03:30N 50°23' W 125°47'612.5
2017-Oct-21 02:59N 50°22' W 125°37'612.3
2017-Oct-21 02:30N 50°20' W 125°28'5 9.5
2017-Oct-21 02:00N 50°16' W 125°24'510.8
2017-Oct-21 01:30N 50°11' W 125°22'4 8.7
2017-Oct-21 01:01N 50°07' W 125°19'4 8.2
2017-Oct-21 00:31N 50°04' W 125°15'4 7.6
2017-Oct-21 00:01N 50°01' W 125°12'4 7.6
2017-Oct-20 23:30N 49°58' W 125°09'5 9.2
2017-Oct-20 23:01N 49°54' W 125°04'5 9.0
2017-Oct-20 22:30N 49°51' W 124°59'4 9.0
2017-Oct-20 22:00N 49°48' W 124°54'5 9.0
2017-Oct-20 21:30N 49°45' W 124°49'5 9.1
2017-Oct-20 21:01N 49°42' W 124°44'5 9.5
2017-Oct-20 20:30N 49°38' W 124°39'4 9.0
2017-Oct-20 20:00N 49°35' W 124°34'5 9.3
2017-Oct-20 19:30N 49°32' W 124°29'510.0
2017-Oct-20 19:00N 49°28' W 124°23'510.3
2017-Oct-20 18:30N 49°25' W 124°18'510.0
2017-Oct-20 18:01N 49°21' W 124°12'5 9.6
2017-Oct-20 17:31N 49°19' W 124°06'5 9.3
2017-Oct-20 17:01N 49°16' W 123°60'3 6.1
2017-Oct-20 16:30N 49°16' W 123°55'0 0.0
2017-Oct-20 16:00N 49°16' W 123°55'0 0.0
2017-Oct-20 15:30N 49°16' W 123°55'0 0.2
2017-Oct-20 15:00N 49°16' W 123°55'0 0.2
2017-Oct-20 14:31N 49°16' W 123°55'3 3.4
2017-Oct-20 13:31N 49°14' W 123°50'4 8.5
2017-Oct-20 13:00N 49°13' W 123°44'5 9.5
2017-Oct-20 12:30N 49°11' W 123°38'510.6
2017-Oct-20 12:00N 49°08' W 123°31'510.9
2017-Oct-20 11:30N 49°05' W 123°24'510.6
2017-Oct-20 11:00N 49°02' W 123°17'510.6
2017-Oct-20 10:30N 48°59' W 123°11'510.2
2017-Oct-20 10:00N 48°55' W 123°05'610.3
2017-Oct-20 09:24N 48°51' W 122°58'3 7.4
2017-Oct-20 09:00N 48°48' W 122°59'510.7
2017-Oct-20 08:31N 48°45' W 123°04'510.1
2017-Oct-20 08:00N 48°43' W 123°12'6 9.3
2017-Oct-20 07:19N 48°45' W 123°21'6 9.5
2017-Oct-20 06:44N 48°42' W 123°29'2 9.2
2017-Oct-20 06:30N 48°41' W 123°30'  
2017-Oct-18 01:28N 48°39' W 123°27'0 0.8
2017-Oct-18 00:59N 48°39' W 123°28'4 4.0
2017-Oct-17 23:57N 48°43' W 123°25'4 8.5
2017-Oct-17 23:30N 48°46' W 123°22'5 9.8
2017-Oct-17 23:01N 48°50' W 123°25'1 2.4
2017-Oct-17 22:30N 48°52' W 123°24'3 5.0
2017-Oct-17 21:59N 48°53' W 123°27'1 2.3
2017-Oct-17 21:30N 48°54' W 123°29'0 0.3
2017-Oct-17 21:00N 48°54' W 123°29'1 2.1
2017-Oct-17 20:30N 48°55' W 123°29'5 9.4
2017-Oct-17 19:58N 48°57' W 123°36'1 0.2
2017-Oct-17 16:33N 48°57' W 123°37'0 0.0
2017-Oct-17 09:21N 48°57' W 123°37'0 0.0
2017-Oct-17 06:33N 48°57' W 123°37'0 0.1
2017-Oct-17 06:27N 48°57' W 123°37'0 0.0
2017-Oct-17 05:51N 48°57' W 123°37'0 0.1
2017-Oct-17 05:27N 48°57' W 123°37'0 0.0
2017-Oct-17 04:57N 48°57' W 123°37'0 0.0
2017-Oct-17 04:27N 48°57' W 123°37'0 0.0
2017-Oct-17 03:57N 48°57' W 123°37'0 0.0
2017-Oct-17 03:09N 48°57' W 123°37'0 0.0
2017-Oct-17 02:57N 48°57' W 123°37'0 0.0
2017-Oct-17 02:27N 48°57' W 123°37'0 0.0
2017-Oct-17 01:57N 48°57' W 123°37'0 0.0
2017-Oct-17 01:27N 48°57' W 123°37'0 0.0
2017-Oct-17 00:33N 48°57' W 123°37'0 0.0
2017-Oct-16 23:33N 48°57' W 123°37'0 0.1
2017-Oct-16 23:21N 48°57' W 123°37'0 0.0
2017-Oct-16 22:57N 48°57' W 123°37'0 0.0
2017-Oct-16 22:27N 48°57' W 123°37'0 0.0
2017-Oct-16 20:57N 48°57' W 123°37'0 0.0
2017-Oct-16 20:15N 48°57' W 123°37'0 0.0
2017-Oct-16 19:57N 48°57' W 123°37'0 0.0
2017-Oct-16 19:15N 48°57' W 123°37'0 0.0
2017-Oct-16 18:45N 48°57' W 123°37'0 0.1
2017-Oct-16 18:15N 48°57' W 123°37'0 0.0
2017-Oct-16 17:45N 48°57' W 123°37'0 0.0
2017-Oct-16 17:15N 48°57' W 123°37'1 4.6
2017-Oct-16 17:00N 48°57' W 123°36'5 9.4
2017-Oct-16 16:30N 48°55' W 123°29'510.1
2017-Oct-16 16:00N 48°51' W 123°23'5 9.7
2017-Oct-16 15:30N 48°49' W 123°17'2 2.9
2017-Oct-16 14:49N 48°48' W 123°15'0 0.0
2017-Oct-16 14:28N 48°48' W 123°15'0 0.0
2017-Oct-16 13:28N 48°48' W 123°15'0 0.0
2017-Oct-16 12:37N 48°48' W 123°15'0 0.0
2017-Oct-16 12:10N 48°48' W 123°15'0 0.0
2017-Oct-16 11:55N 48°48' W 123°15'0 0.0
2017-Oct-16 11:28N 48°48' W 123°15'0 0.0
2017-Oct-16 10:52N 48°48' W 123°15'0 0.0
2017-Oct-16 10:25N 48°48' W 123°15'0 0.0
2017-Oct-16 09:13N 48°48' W 123°15'0 0.0
2017-Oct-16 08:52N 48°48' W 123°15'0 0.0
2017-Oct-16 08:28N 48°48' W 123°15'0 0.0
2017-Oct-16 07:58N 48°48' W 123°15'0 0.0
2017-Oct-16 07:10N 48°48' W 123°15'0 0.0
2017-Oct-16 06:37N 48°48' W 123°15'0 0.0
2017-Oct-16 06:28N 48°48' W 123°15'0 0.0
2017-Oct-16 05:49N 48°48' W 123°15'0 0.0
2017-Oct-16 03:55N 48°48' W 123°15'0 0.0
2017-Oct-16 03:07N 48°48' W 123°15'0 0.0
2017-Oct-16 02:58N 48°48' W 123°15'0 0.0
2017-Oct-16 02:28N 48°48' W 123°15'0 0.1
2017-Oct-16 01:43N 48°48' W 123°15'0 0.0
2017-Oct-16 01:28N 48°48' W 123°15'0 0.1
2017-Oct-16 01:00N 48°48' W 123°15'4 8.1
2017-Oct-16 00:30N 48°45' W 123°10'3 6.4
2017-Oct-16 00:00N 48°42' W 123°13'4 7.9
2017-Oct-15 23:30N 48°38' W 123°14'511.0
2017-Oct-15 23:01N 48°33' W 123°12'611.1
2017-Oct-15 22:30N 48°28' W 123°10'5 9.8
2017-Oct-15 22:00N 48°24' W 123°13'611.4
2017-Oct-15 21:30N 48°22' W 123°21'611.2
2017-Oct-15 21:00N 48°17' W 123°25'510.9
2017-Oct-15 20:30N 48°17' W 123°33'4 7.1
2017-Oct-15 19:57N 48°20' W 123°37'0 0.0
2017-Oct-15 15:40N 48°20' W 123°37'0 0.0
2017-Oct-15 15:19N 48°20' W 123°37'0 0.0
2017-Oct-15 14:58N 48°20' W 123°37'0 0.0
2017-Oct-15 13:52N 48°20' W 123°37'0 0.0
2017-Oct-15 13:25N 48°20' W 123°37'0 0.0
2017-Oct-15 12:49N 48°20' W 123°37'0 0.0
2017-Oct-15 12:28N 48°20' W 123°37'0 0.0
2017-Oct-15 11:58N 48°20' W 123°37'0 0.0
2017-Oct-15 11:28N 48°20' W 123°37'0 0.0
2017-Oct-15 06:52N 48°20' W 123°37'0 0.0
2017-Oct-15 06:28N 48°20' W 123°37'0 0.0
2017-Oct-15 05:58N 48°20' W 123°37'0 0.0
2017-Oct-15 05:28N 48°20' W 123°37'0 0.0
2017-Oct-15 03:37N 48°20' W 123°37'0 0.0
2017-Oct-15 03:28N 48°20' W 123°37'0 0.1
2017-Oct-15 02:58N 48°20' W 123°37'0 0.0
2017-Oct-15 02:28N 48°20' W 123°37'0 0.0
2017-Oct-15 01:58N 48°20' W 123°37'0 0.0
2017-Oct-14 20:25N 48°20' W 123°37'0 0.0
2017-Oct-14 19:58N 48°20' W 123°37'0 0.0
2017-Oct-14 15:37N 48°20' W 123°37'0 0.0
2017-Oct-14 12:10N 48°20' W 123°37'0 0.0
2017-Oct-14 11:55N 48°20' W 123°37'0 0.0
2017-Oct-14 11:28N 48°20' W 123°37'0 0.0
2017-Oct-14 10:58N 48°20' W 123°37'0 0.0
2017-Oct-14 10:25N 48°20' W 123°37'0 0.0
2017-Oct-14 09:58N 48°20' W 123°37'0 0.0
2017-Oct-14 07:16N 48°20' W 123°37'0 0.0
2017-Oct-14 06:58N 48°20' W 123°37'0 0.0
2017-Oct-14 06:28N 48°20' W 123°37'0 0.0
2017-Oct-14 03:52N 48°20' W 123°37'0 0.0
2017-Oct-14 03:28N 48°20' W 123°37'0 0.0
2017-Oct-14 02:59N 48°20' W 123°37'0 0.0
2017-Oct-14 02:24N 48°20' W 123°37'1 0.4
2017-Oct-13 23:18N 48°18' W 123°37'310.3
2017-Oct-13 23:00N 48°17' W 123°33'5 9.3
2017-Oct-13 22:29N 48°19' W 123°27'5 9.9
2017-Oct-13 22:00N 48°23' W 123°22'611.1
2017-Oct-13 21:30N 48°24' W 123°14'1 1.7
2017-Oct-13 21:00N 48°24' W 123°13'5 9.8
2017-Oct-13 20:30N 48°22' W 123°20'4 8.4
2017-Oct-13 20:00N 48°25' W 123°24'0 0.8
2017-Oct-13 19:26N 48°25' W 123°23'0 0.0
2017-Oct-13 18:59N 48°25' W 123°23'0 0.0
2017-Oct-13 18:26N 48°25' W 123°23'0 0.0
2017-Oct-13 17:56N 48°25' W 123°23'0 0.0
2017-Oct-13 17:26N 48°25' W 123°23'0 0.0
2017-Oct-13 16:11N 48°25' W 123°23'0 0.0
2017-Oct-13 15:44N 48°25' W 123°23'0 0.0
2017-Oct-13 15:20N 48°25' W 123°23'0 0.0
2017-Oct-13 14:56N 48°25' W 123°23'0 0.0
2017-Oct-13 14:20N 48°25' W 123°23'0 0.0
2017-Oct-13 13:44N 48°25' W 123°23'0 0.0
2017-Oct-13 13:14N 48°25' W 123°23'0 0.0
2017-Oct-13 12:50N 48°25' W 123°23'0 0.0
2017-Oct-13 12:26N 48°25' W 123°23'0 0.0
2017-Oct-13 11:56N 48°25' W 123°23'0 0.0
2017-Oct-13 11:26N 48°25' W 123°23'0 0.0
2017-Oct-13 10:56N 48°25' W 123°23'0 0.0
2017-Oct-13 10:20N 48°25' W 123°23'0 0.0
2017-Oct-13 09:56N 48°25' W 123°23'0 0.0
2017-Oct-13 09:26N 48°25' W 123°23'0 0.0
2017-Oct-13 08:32N 48°25' W 123°23'0 0.0
2017-Oct-13 08:26N 48°25' W 123°23'0 0.0
2017-Oct-13 07:56N 48°25' W 123°23'0 0.0
2017-Oct-13 07:26N 48°25' W 123°23'0 0.0
2017-Oct-13 06:56N 48°25' W 123°23'0 0.0
2017-Oct-13 06:26N 48°25' W 123°23'0 0.0
2017-Oct-13 05:56N 48°25' W 123°23'0 0.0
2017-Oct-13 05:26N 48°25' W 123°23'0 0.0
2017-Oct-13 04:56N 48°25' W 123°23'0 0.0
2017-Oct-13 04:26N 48°25' W 123°23'0 0.0
2017-Oct-13 03:59N 48°25' W 123°23'0 0.0
2017-Oct-13 03:26N 48°25' W 123°23'0 0.0
2017-Oct-13 02:56N 48°25' W 123°23'0 0.0
2017-Oct-13 02:26N 48°25' W 123°23'0 0.0
2017-Oct-13 01:50N 48°25' W 123°23'0 0.0
2017-Oct-13 01:29N 48°25' W 123°23'0 0.0
2017-Oct-13 00:59N 48°25' W 123°23'0 0.0
2017-Oct-13 00:26N 48°25' W 123°23'0 0.0
2017-Oct-12 23:56N 48°25' W 123°23'0 0.0
2017-Oct-12 23:26N 48°25' W 123°23'0 0.0
2017-Oct-12 22:56N 48°25' W 123°23'0 0.0
2017-Oct-12 22:26N 48°25' W 123°23'0 0.0
2017-Oct-12 22:00N 48°25' W 123°23'1 1.9
2017-Oct-12 21:31N 48°24' W 123°24'5 9.5
2017-Oct-12 21:00N 48°23' W 123°17'3 5.9
2017-Oct-12 20:30N 48°26' W 123°17'0 0.4
2017-Oct-12 20:01N 48°26' W 123°17'3 6.7
2017-Oct-12 19:30N 48°29' W 123°15'510.1
2017-Oct-12 19:00N 48°34' W 123°18'5 9.5
2017-Oct-12 18:30N 48°38' W 123°22'1 1.0
2017-Oct-12 17:58N 48°38' W 123°21'1 1.9
2017-Oct-12 17:26N 48°39' W 123°22'0 0.5
2017-Oct-12 17:00N 48°38' W 123°22'6 5.7
2017-Oct-12 15:58N 48°42' W 123°29'3 6.2
2017-Oct-12 15:30N 48°39' W 123°28'0 0.0
2017-Oct-12 07:14N 48°39' W 123°27'0 0.0
2017-Oct-12 06:56N 48°39' W 123°27'  

Dump ship's entire track history